sensor_id;sensor_type;location;lat;lon;timestamp;P1;durP1;ratioP1;P2;durP2;ratioP2
40533;SDS011;26233;51.894;10.192;2023-02-28T00:01:13;1.40;;;1.30;;
40533;SDS011;26233;51.894;10.192;2023-02-28T00:03:41;1.10;;;1.10;;
40533;SDS011;26233;51.894;10.192;2023-02-28T00:06:08;1.23;;;1.13;;
40533;SDS011;26233;51.894;10.192;2023-02-28T00:08:35;1.77;;;1.27;;
40533;SDS011;26233;51.894;10.192;2023-02-28T00:11:03;1.43;;;1.20;;
40533;SDS011;26233;51.894;10.192;2023-02-28T00:13:34;1.50;;;1.40;;
40533;SDS011;26233;51.894;10.192;2023-02-28T00:16:04;1.50;;;1.40;;
40533;SDS011;26233;51.894;10.192;2023-02-28T00:18:33;1.40;;;1.30;;
40533;SDS011;26233;51.894;10.192;2023-02-28T00:21:00;2.07;;;1.23;;
40533;SDS011;26233;51.894;10.192;2023-02-28T00:23:27;1.20;;;1.10;;
40533;SDS011;26233;51.894;10.192;2023-02-28T00:25:54;1.20;;;1.10;;
40533;SDS011;26233;51.894;10.192;2023-02-28T00:28:22;1.20;;;1.10;;
40533;SDS011;26233;51.894;10.192;2023-02-28T00:30:51;1.07;;;0.97;;
40533;SDS011;26233;51.894;10.192;2023-02-28T00:33:18;1.20;;;1.10;;
40533;SDS011;26233;51.894;10.192;2023-02-28T00:35:45;1.00;;;1.00;;
40533;SDS011;26233;51.894;10.192;2023-02-28T00:38:13;1.20;;;1.10;;
40533;SDS011;26233;51.894;10.192;2023-02-28T00:40:41;1.13;;;1.00;;
40533;SDS011;26233;51.894;10.192;2023-02-28T00:43:08;1.20;;;1.10;;
40533;SDS011;26233;51.894;10.192;2023-02-28T00:45:35;1.30;;;1.20;;
40533;SDS011;26233;51.894;10.192;2023-02-28T00:48:04;1.10;;;1.00;;
40533;SDS011;26233;51.894;10.192;2023-02-28T00:50:31;1.40;;;1.10;;
40533;SDS011;26233;51.894;10.192;2023-02-28T00:52:58;1.20;;;1.10;;
40533;SDS011;26233;51.894;10.192;2023-02-28T00:55:25;1.40;;;1.30;;
40533;SDS011;26233;51.894;10.192;2023-02-28T00:57:52;1.50;;;1.40;;
40533;SDS011;26233;51.894;10.192;2023-02-28T01:00:19;1.57;;;1.30;;
40533;SDS011;26233;51.894;10.192;2023-02-28T01:02:46;1.30;;;1.20;;
40533;SDS011;26233;51.894;10.192;2023-02-28T01:05:15;1.50;;;1.40;;
40533;SDS011;26233;51.894;10.192;2023-02-28T01:07:42;1.27;;;1.17;;
40533;SDS011;26233;51.894;10.192;2023-02-28T01:10:09;1.10;;;1.00;;
40533;SDS011;26233;51.894;10.192;2023-02-28T01:12:37;2.10;;;1.40;;
40533;SDS011;26233;51.894;10.192;2023-02-28T01:15:04;1.57;;;1.20;;
40533;SDS011;26233;51.894;10.192;2023-02-28T01:17:33;1.37;;;1.27;;
40533;SDS011;26233;51.894;10.192;2023-02-28T01:20:00;1.73;;;1.40;;
40533;SDS011;26233;51.894;10.192;2023-02-28T01:22:28;1.50;;;1.40;;
40533;SDS011;26233;51.894;10.192;2023-02-28T01:24:55;1.60;;;1.50;;
40533;SDS011;26233;51.894;10.192;2023-02-28T01:27:22;2.00;;;1.60;;
40533;SDS011;26233;51.894;10.192;2023-02-28T01:29:50;1.87;;;1.40;;
40533;SDS011;26233;51.894;10.192;2023-02-28T01:32:17;1.50;;;1.40;;
40533;SDS011;26233;51.894;10.192;2023-02-28T01:34:44;1.50;;;1.40;;
40533;SDS011;26233;51.894;10.192;2023-02-28T01:37:11;2.10;;;1.57;;
40533;SDS011;26233;51.894;10.192;2023-02-28T01:39:40;1.20;;;1.10;;
40533;SDS011;26233;51.894;10.192;2023-02-28T01:42:08;1.20;;;1.10;;
40533;SDS011;26233;51.894;10.192;2023-02-28T01:47:41;1.30;;;1.20;;
40533;SDS011;26233;51.894;10.192;2023-02-28T01:50:11;1.23;;;1.13;;
40533;SDS011;26233;51.894;10.192;2023-02-28T01:52:42;1.50;;;1.40;;
40533;SDS011;26233;51.894;10.192;2023-02-28T01:55:13;1.40;;;1.30;;
40533;SDS011;26233;51.894;10.192;2023-02-28T01:57:45;1.30;;;1.20;;
40533;SDS011;26233;51.894;10.192;2023-02-28T02:00:17;1.40;;;1.20;;
40533;SDS011;26233;51.894;10.192;2023-02-28T02:02:50;1.30;;;1.20;;
40533;SDS011;26233;51.894;10.192;2023-02-28T02:05:21;1.30;;;1.20;;
40533;SDS011;26233;51.894;10.192;2023-02-28T02:07:51;1.33;;;1.23;;
40533;SDS011;26233;51.894;10.192;2023-02-28T02:10:27;1.63;;;1.40;;
40533;SDS011;26233;51.894;10.192;2023-02-28T02:16:03;1.50;;;1.20;;
40533;SDS011;26233;51.894;10.192;2023-02-28T02:18:40;1.30;;;1.20;;
40533;SDS011;26233;51.894;10.192;2023-02-28T02:21:16;1.30;;;1.20;;
40533;SDS011;26233;51.894;10.192;2023-02-28T02:27:58;1.30;;;1.20;;
40533;SDS011;26233;51.894;10.192;2023-02-28T02:31:06;1.53;;;1.20;;
40533;SDS011;26233;51.894;10.192;2023-02-28T02:34:20;1.40;;;1.10;;
40533;SDS011;26233;51.894;10.192;2023-02-28T02:37:01;1.17;;;1.07;;
40533;SDS011;26233;51.894;10.192;2023-02-28T02:39:39;1.10;;;1.00;;
40533;SDS011;26233;51.894;10.192;2023-02-28T02:42:14;1.10;;;1.10;;
40533;SDS011;26233;51.894;10.192;2023-02-28T02:44:49;1.20;;;1.10;;
40533;SDS011;26233;51.894;10.192;2023-02-28T02:47:23;0.90;;;0.90;;
40533;SDS011;26233;51.894;10.192;2023-02-28T02:49:54;1.30;;;1.20;;
40533;SDS011;26233;51.894;10.192;2023-02-28T02:52:32;1.27;;;1.17;;
40533;SDS011;26233;51.894;10.192;2023-02-28T02:55:05;1.20;;;1.10;;
40533;SDS011;26233;51.894;10.192;2023-02-28T02:57:37;1.40;;;1.30;;
40533;SDS011;26233;51.894;10.192;2023-02-28T03:00:11;1.00;;;0.90;;
40533;SDS011;26233;51.894;10.192;2023-02-28T03:02:41;1.17;;;1.07;;
40533;SDS011;26233;51.894;10.192;2023-02-28T03:05:14;1.20;;;1.10;;
40533;SDS011;26233;51.894;10.192;2023-02-28T03:07:46;1.17;;;1.03;;
40533;SDS011;26233;51.894;10.192;2023-02-28T03:10:29;1.10;;;1.00;;
40533;SDS011;26233;51.894;10.192;2023-02-28T03:13:09;1.10;;;1.00;;
40533;SDS011;26233;51.894;10.192;2023-02-28T03:15:51;1.00;;;1.00;;
40533;SDS011;26233;51.894;10.192;2023-02-28T03:18:36;1.20;;;1.00;;
40533;SDS011;26233;51.894;10.192;2023-02-28T03:21:18;1.33;;;1.23;;
40533;SDS011;26233;51.894;10.192;2023-02-28T03:23:56;1.53;;;1.20;;
40533;SDS011;26233;51.894;10.192;2023-02-28T03:26:30;1.23;;;1.13;;
40533;SDS011;26233;51.894;10.192;2023-02-28T03:29:02;1.10;;;1.10;;
40533;SDS011;26233;51.894;10.192;2023-02-28T03:31:33;1.20;;;1.10;;
40533;SDS011;26233;51.894;10.192;2023-02-28T03:34:05;1.20;;;1.10;;
40533;SDS011;26233;51.894;10.192;2023-02-28T03:36:38;1.30;;;1.20;;
40533;SDS011;26233;51.894;10.192;2023-02-28T03:39:11;1.40;;;1.10;;
40533;SDS011;26233;51.894;10.192;2023-02-28T03:41:43;1.20;;;1.10;;
40533;SDS011;26233;51.894;10.192;2023-02-28T03:44:16;1.10;;;1.00;;
40533;SDS011;26233;51.894;10.192;2023-02-28T03:46:51;1.10;;;1.10;;
40533;SDS011;26233;51.894;10.192;2023-02-28T03:49:27;1.03;;;1.00;;
40533;SDS011;26233;51.894;10.192;2023-02-28T03:52:00;1.00;;;0.90;;
40533;SDS011;26233;51.894;10.192;2023-02-28T03:54:31;0.80;;;0.80;;
40533;SDS011;26233;51.894;10.192;2023-02-28T03:57:04;1.97;;;0.90;;
40533;SDS011;26233;51.894;10.192;2023-02-28T03:59:39;0.93;;;0.93;;
40533;SDS011;26233;51.894;10.192;2023-02-28T04:02:10;1.60;;;1.00;;
40533;SDS011;26233;51.894;10.192;2023-02-28T04:04:37;1.00;;;1.00;;
40533;SDS011;26233;51.894;10.192;2023-02-28T04:07:15;1.10;;;1.00;;
40533;SDS011;26233;51.894;10.192;2023-02-28T04:09:42;0.90;;;0.90;;
40533;SDS011;26233;51.894;10.192;2023-02-28T04:12:09;1.13;;;1.00;;
40533;SDS011;26233;51.894;10.192;2023-02-28T04:14:36;0.90;;;0.90;;
40533;SDS011;26233;51.894;10.192;2023-02-28T04:17:04;1.10;;;1.00;;
40533;SDS011;26233;51.894;10.192;2023-02-28T04:19:31;0.83;;;0.83;;
40533;SDS011;26233;51.894;10.192;2023-02-28T04:21:58;0.90;;;0.90;;
40533;SDS011;26233;51.894;10.192;2023-02-28T04:24:27;1.00;;;0.90;;
40533;SDS011;26233;51.894;10.192;2023-02-28T04:26:55;1.00;;;1.00;;
40533;SDS011;26233;51.894;10.192;2023-02-28T04:29:24;1.20;;;1.10;;
40533;SDS011;26233;51.894;10.192;2023-02-28T04:31:53;1.10;;;1.00;;
40533;SDS011;26233;51.894;10.192;2023-02-28T04:34:23;1.03;;;0.97;;
40533;SDS011;26233;51.894;10.192;2023-02-28T04:36:50;0.80;;;0.80;;
40533;SDS011;26233;51.894;10.192;2023-02-28T04:39:19;1.17;;;1.00;;
40533;SDS011;26233;51.894;10.192;2023-02-28T04:41:48;1.40;;;1.00;;
40533;SDS011;26233;51.894;10.192;2023-02-28T04:44:16;1.00;;;0.97;;
40533;SDS011;26233;51.894;10.192;2023-02-28T04:46:43;1.47;;;1.00;;
40533;SDS011;26233;51.894;10.192;2023-02-28T04:49:10;1.27;;;1.17;;
40533;SDS011;26233;51.894;10.192;2023-02-28T04:51:39;1.23;;;1.00;;
40533;SDS011;26233;51.894;10.192;2023-02-28T04:54:06;1.40;;;1.03;;
40533;SDS011;26233;51.894;10.192;2023-02-28T04:56:34;1.20;;;1.10;;
40533;SDS011;26233;51.894;10.192;2023-02-28T04:59:02;0.90;;;0.90;;
40533;SDS011;26233;51.894;10.192;2023-02-28T05:01:30;1.10;;;1.00;;
40533;SDS011;26233;51.894;10.192;2023-02-28T05:04:00;1.50;;;1.13;;
40533;SDS011;26233;51.894;10.192;2023-02-28T05:06:29;0.90;;;0.90;;
40533;SDS011;26233;51.894;10.192;2023-02-28T05:08:58;1.10;;;0.93;;
40533;SDS011;26233;51.894;10.192;2023-02-28T05:11:26;1.37;;;1.00;;
40533;SDS011;26233;51.894;10.192;2023-02-28T05:13:59;1.20;;;1.10;;
40533;SDS011;26233;51.894;10.192;2023-02-28T05:16:28;1.00;;;0.90;;
40533;SDS011;26233;51.894;10.192;2023-02-28T05:18:55;1.40;;;1.30;;
40533;SDS011;26233;51.894;10.192;2023-02-28T05:21:24;1.40;;;1.20;;
40533;SDS011;26233;51.894;10.192;2023-02-28T05:23:54;1.30;;;1.20;;
40533;SDS011;26233;51.894;10.192;2023-02-28T05:26:23;1.20;;;1.10;;
40533;SDS011;26233;51.894;10.192;2023-02-28T05:28:51;1.33;;;1.23;;
40533;SDS011;26233;51.894;10.192;2023-02-28T05:31:18;1.27;;;1.17;;
40533;SDS011;26233;51.894;10.192;2023-02-28T05:33:46;1.27;;;1.17;;
40533;SDS011;26233;51.894;10.192;2023-02-28T05:36:13;1.40;;;1.30;;
40533;SDS011;26233;51.894;10.192;2023-02-28T05:38:40;1.40;;;1.30;;
40533;SDS011;26233;51.894;10.192;2023-02-28T05:41:08;1.20;;;1.10;;
40533;SDS011;26233;51.894;10.192;2023-02-28T05:43:36;1.20;;;1.10;;
40533;SDS011;26233;51.894;10.192;2023-02-28T05:46:04;1.47;;;1.30;;
40533;SDS011;26233;51.894;10.192;2023-02-28T05:48:34;1.83;;;1.30;;
40533;SDS011;26233;51.894;10.192;2023-02-28T05:51:04;2.80;;;1.83;;
40533;SDS011;26233;51.894;10.192;2023-02-28T05:53:32;2.20;;;2.00;;
40533;SDS011;26233;51.894;10.192;2023-02-28T05:56:00;2.93;;;2.43;;
40533;SDS011;26233;51.894;10.192;2023-02-28T05:58:27;2.77;;;2.50;;
40533;SDS011;26233;51.894;10.192;2023-02-28T06:00:55;2.10;;;1.90;;
40533;SDS011;26233;51.894;10.192;2023-02-28T06:03:23;2.53;;;2.23;;
40533;SDS011;26233;51.894;10.192;2023-02-28T06:05:50;2.40;;;2.20;;
40533;SDS011;26233;51.894;10.192;2023-02-28T06:08:19;2.67;;;1.80;;
40533;SDS011;26233;51.894;10.192;2023-02-28T06:10:46;3.03;;;2.10;;
40533;SDS011;26233;51.894;10.192;2023-02-28T06:13:13;1.67;;;1.57;;
40533;SDS011;26233;51.894;10.192;2023-02-28T06:15:40;1.80;;;1.70;;
40533;SDS011;26233;51.894;10.192;2023-02-28T06:18:07;1.60;;;1.50;;
40533;SDS011;26233;51.894;10.192;2023-02-28T06:20:34;2.07;;;1.80;;
40533;SDS011;26233;51.894;10.192;2023-02-28T06:23:01;1.80;;;1.70;;
40533;SDS011;26233;51.894;10.192;2023-02-28T06:25:30;1.70;;;1.60;;
40533;SDS011;26233;51.894;10.192;2023-02-28T06:27:57;1.83;;;1.60;;
40533;SDS011;26233;51.894;10.192;2023-02-28T06:30:24;1.40;;;1.30;;
40533;SDS011;26233;51.894;10.192;2023-02-28T06:32:53;1.60;;;1.50;;
40533;SDS011;26233;51.894;10.192;2023-02-28T06:35:20;1.50;;;1.30;;
40533;SDS011;26233;51.894;10.192;2023-02-28T06:37:47;1.30;;;1.20;;
40533;SDS011;26233;51.894;10.192;2023-02-28T06:40:14;2.33;;;1.60;;
40533;SDS011;26233;51.894;10.192;2023-02-28T06:42:43;1.70;;;1.60;;
40533;SDS011;26233;51.894;10.192;2023-02-28T06:45:10;1.77;;;1.50;;
40533;SDS011;26233;51.894;10.192;2023-02-28T06:47:38;2.57;;;1.50;;
40533;SDS011;26233;51.894;10.192;2023-02-28T06:50:07;2.27;;;1.47;;
40533;SDS011;26233;51.894;10.192;2023-02-28T06:52:37;2.87;;;2.27;;
40533;SDS011;26233;51.894;10.192;2023-02-28T06:55:05;2.63;;;2.43;;
40533;SDS011;26233;51.894;10.192;2023-02-28T06:57:34;2.93;;;2.73;;
40533;SDS011;26233;51.894;10.192;2023-02-28T07:00:04;3.53;;;3.13;;
40533;SDS011;26233;51.894;10.192;2023-02-28T07:02:36;3.10;;;2.80;;
40533;SDS011;26233;51.894;10.192;2023-02-28T07:05:04;3.30;;;3.00;;
40533;SDS011;26233;51.894;10.192;2023-02-28T07:07:31;2.90;;;2.60;;
40533;SDS011;26233;51.894;10.192;2023-02-28T07:09:59;2.77;;;2.57;;
40533;SDS011;26233;51.894;10.192;2023-02-28T07:12:26;3.30;;;2.93;;
40533;SDS011;26233;51.894;10.192;2023-02-28T07:14:53;3.20;;;2.90;;
40533;SDS011;26233;51.894;10.192;2023-02-28T07:17:22;3.03;;;2.83;;
40533;SDS011;26233;51.894;10.192;2023-02-28T07:19:49;2.90;;;2.33;;
40533;SDS011;26233;51.894;10.192;2023-02-28T07:22:16;2.40;;;2.20;;
40533;SDS011;26233;51.894;10.192;2023-02-28T07:24:43;1.93;;;1.83;;
40533;SDS011;26233;51.894;10.192;2023-02-28T07:27:10;2.43;;;2.03;;
40533;SDS011;26233;51.894;10.192;2023-02-28T07:29:37;2.20;;;2.00;;
40533;SDS011;26233;51.894;10.192;2023-02-28T07:32:04;1.97;;;1.70;;
40533;SDS011;26233;51.894;10.192;2023-02-28T07:34:32;1.90;;;1.63;;
40533;SDS011;26233;51.894;10.192;2023-02-28T07:37:00;2.10;;;1.90;;
40533;SDS011;26233;51.894;10.192;2023-02-28T07:39:28;2.50;;;2.30;;
40533;SDS011;26233;51.894;10.192;2023-02-28T07:41:55;2.90;;;2.70;;
40533;SDS011;26233;51.894;10.192;2023-02-28T07:44:23;3.43;;;3.13;;
40533;SDS011;26233;51.894;10.192;2023-02-28T07:46:50;3.87;;;3.47;;
40533;SDS011;26233;51.894;10.192;2023-02-28T07:49:17;3.47;;;3.00;;
40533;SDS011;26233;51.894;10.192;2023-02-28T07:51:46;2.90;;;2.60;;
40533;SDS011;26233;51.894;10.192;2023-02-28T07:54:13;2.47;;;2.20;;
40533;SDS011;26233;51.894;10.192;2023-02-28T07:56:40;3.77;;;2.20;;
40533;SDS011;26233;51.894;10.192;2023-02-28T07:59:07;5.80;;;2.60;;
40533;SDS011;26233;51.894;10.192;2023-02-28T08:01:34;2.63;;;2.43;;
40533;SDS011;26233;51.894;10.192;2023-02-28T08:04:04;2.10;;;1.90;;
40533;SDS011;26233;51.894;10.192;2023-02-28T08:06:31;2.90;;;2.50;;
40533;SDS011;26233;51.894;10.192;2023-02-28T08:08:59;3.30;;;2.53;;
40533;SDS011;26233;51.894;10.192;2023-02-28T08:11:26;2.50;;;2.30;;
40533;SDS011;26233;51.894;10.192;2023-02-28T08:13:54;2.97;;;2.38;;
40533;SDS011;26233;51.894;10.192;2023-02-28T08:16:21;2.17;;;1.98;;
40533;SDS011;26233;51.894;10.192;2023-02-28T08:18:48;2.38;;;2.20;;
40533;SDS011;26233;51.894;10.192;2023-02-28T08:21:16;2.22;;;2.00;;
40533;SDS011;26233;51.894;10.192;2023-02-28T08:23:45;2.08;;;1.90;;
40533;SDS011;26233;51.894;10.192;2023-02-28T08:26:15;1.98;;;1.80;;
40533;SDS011;26233;51.894;10.192;2023-02-28T08:28:45;2.03;;;1.67;;
40533;SDS011;26233;51.894;10.192;2023-02-28T08:31:13;1.90;;;1.80;;
40533;SDS011;26233;51.894;10.192;2023-02-28T08:33:42;1.95;;;1.83;;
40533;SDS011;26233;51.894;10.192;2023-02-28T08:36:11;2.13;;;1.95;;
40533;SDS011;26233;51.894;10.192;2023-02-28T08:38:38;2.72;;;2.08;;
40533;SDS011;26233;51.894;10.192;2023-02-28T08:41:06;1.80;;;1.60;;
40533;SDS011;26233;51.894;10.192;2023-02-28T08:43:38;2.00;;;1.80;;
40533;SDS011;26233;51.894;10.192;2023-02-28T08:46:06;2.20;;;2.00;;
40533;SDS011;26233;51.894;10.192;2023-02-28T08:48:36;1.80;;;1.70;;
40533;SDS011;26233;51.894;10.192;2023-02-28T08:51:04;2.50;;;2.30;;
40533;SDS011;26233;51.894;10.192;2023-02-28T08:53:34;1.95;;;1.80;;
40533;SDS011;26233;51.894;10.192;2023-02-28T08:56:03;2.40;;;2.13;;
40533;SDS011;26233;51.894;10.192;2023-02-28T08:58:34;1.85;;;1.75;;
40533;SDS011;26233;51.894;10.192;2023-02-28T09:01:08;1.98;;;1.77;;
40533;SDS011;26233;51.894;10.192;2023-02-28T09:03:38;2.50;;;2.08;;
40533;SDS011;26233;51.894;10.192;2023-02-28T09:06:06;2.03;;;1.83;;
40533;SDS011;26233;51.894;10.192;2023-02-28T09:08:35;2.25;;;2.05;;
40533;SDS011;26233;51.894;10.192;2023-02-28T09:11:02;2.10;;;1.90;;
40533;SDS011;26233;51.894;10.192;2023-02-28T09:13:30;2.00;;;1.90;;
40533;SDS011;26233;51.894;10.192;2023-02-28T09:15:58;1.90;;;1.77;;
40533;SDS011;26233;51.894;10.192;2023-02-28T09:18:28;2.03;;;1.83;;
40533;SDS011;26233;51.894;10.192;2023-02-28T09:20:56;1.77;;;1.67;;
40533;SDS011;26233;51.894;10.192;2023-02-28T09:23:23;1.90;;;1.80;;
40533;SDS011;26233;51.894;10.192;2023-02-28T09:25:54;2.10;;;1.90;;
40533;SDS011;26233;51.894;10.192;2023-02-28T09:28:21;2.25;;;1.80;;
40533;SDS011;26233;51.894;10.192;2023-02-28T09:30:50;2.10;;;1.90;;
40533;SDS011;26233;51.894;10.192;2023-02-28T09:33:19;1.80;;;1.70;;
40533;SDS011;26233;51.894;10.192;2023-02-28T09:35:48;1.65;;;1.55;;
40533;SDS011;26233;51.894;10.192;2023-02-28T09:38:17;2.13;;;1.70;;
40533;SDS011;26233;51.894;10.192;2023-02-28T09:40:47;2.13;;;1.92;;
40533;SDS011;26233;51.894;10.192;2023-02-28T09:43:18;2.42;;;1.92;;
40533;SDS011;26233;51.894;10.192;2023-02-28T09:45:51;2.40;;;1.88;;
40533;SDS011;26233;51.894;10.192;2023-02-28T09:48:27;2.22;;;2.00;;
40533;SDS011;26233;51.894;10.192;2023-02-28T09:51:02;2.50;;;1.90;;
40533;SDS011;26233;51.894;10.192;2023-02-28T09:53:32;2.22;;;2.03;;
40533;SDS011;26233;51.894;10.192;2023-02-28T09:56:04;1.92;;;1.83;;
40533;SDS011;26233;51.894;10.192;2023-02-28T09:58:38;1.95;;;1.80;;
40533;SDS011;26233;51.894;10.192;2023-02-28T10:01:12;2.08;;;1.88;;
40533;SDS011;26233;51.894;10.192;2023-02-28T10:03:50;1.85;;;1.70;;
40533;SDS011;26233;51.894;10.192;2023-02-28T10:06:26;2.10;;;1.90;;
40533;SDS011;26233;51.894;10.192;2023-02-28T10:08:57;2.50;;;1.98;;
40533;SDS011;26233;51.894;10.192;2023-02-28T10:11:28;2.00;;;1.80;;
40533;SDS011;26233;51.894;10.192;2023-02-28T10:13:59;2.40;;;2.10;;
40533;SDS011;26233;51.894;10.192;2023-02-28T10:16:31;2.10;;;2.00;;
40533;SDS011;26233;51.894;10.192;2023-02-28T10:19:03;2.15;;;1.92;;
40533;SDS011;26233;51.894;10.192;2023-02-28T10:21:38;2.53;;;2.08;;
40533;SDS011;26233;51.894;10.192;2023-02-28T10:24:15;2.45;;;2.00;;
40533;SDS011;26233;51.894;10.192;2023-02-28T10:26:56;1.70;;;1.60;;
40533;SDS011;26233;51.894;10.192;2023-02-28T10:29:28;1.70;;;1.60;;
40533;SDS011;26233;51.894;10.192;2023-02-28T10:32:00;2.53;;;1.83;;
40533;SDS011;26233;51.894;10.192;2023-02-28T10:34:30;2.28;;;2.05;;
40533;SDS011;26233;51.894;10.192;2023-02-28T10:36:58;2.00;;;1.80;;
40533;SDS011;26233;51.894;10.192;2023-02-28T10:39:39;1.92;;;1.73;;
40533;SDS011;26233;51.894;10.192;2023-02-28T10:42:18;2.10;;;1.90;;
40533;SDS011;26233;51.894;10.192;2023-02-28T10:47:40;1.70;;;1.60;;
40533;SDS011;26233;51.894;10.192;2023-02-28T10:50:29;1.75;;;1.65;;
40533;SDS011;26233;51.894;10.192;2023-02-28T10:56:00;1.80;;;1.70;;
40533;SDS011;26233;51.894;10.192;2023-02-28T10:58:33;1.60;;;1.50;;
40533;SDS011;26233;51.894;10.192;2023-02-28T11:01:15;1.40;;;1.30;;
40533;SDS011;26233;51.894;10.192;2023-02-28T11:03:44;1.50;;;1.30;;
40533;SDS011;26233;51.894;10.192;2023-02-28T11:06:13;2.17;;;1.70;;
40533;SDS011;26233;51.894;10.192;2023-02-28T11:08:48;1.60;;;1.50;;
40533;SDS011;26233;51.894;10.192;2023-02-28T11:11:21;1.92;;;1.40;;
40533;SDS011;26233;51.894;10.192;2023-02-28T11:13:52;1.48;;;1.30;;
40533;SDS011;26233;51.894;10.192;2023-02-28T11:16:22;1.60;;;1.48;;
40533;SDS011;26233;51.894;10.192;2023-02-28T11:19:00;1.83;;;1.73;;
40533;SDS011;26233;51.894;10.192;2023-02-28T11:21:29;1.70;;;1.60;;
40533;SDS011;26233;51.894;10.192;2023-02-28T11:24:02;1.70;;;1.60;;
40533;SDS011;26233;51.894;10.192;2023-02-28T11:26:39;2.35;;;1.77;;
40533;SDS011;26233;51.894;10.192;2023-02-28T11:29:11;1.88;;;1.73;;
40533;SDS011;26233;51.894;10.192;2023-02-28T11:31:55;2.05;;;1.85;;
40533;SDS011;26233;51.894;10.192;2023-02-28T11:34:36;2.35;;;2.15;;
40533;SDS011;26233;51.894;10.192;2023-02-28T11:37:05;1.90;;;1.63;;
40533;SDS011;26233;51.894;10.192;2023-02-28T11:39:40;2.10;;;1.90;;
40533;SDS011;26233;51.894;10.192;2023-02-28T11:42:13;2.00;;;1.80;;
40533;SDS011;26233;51.894;10.192;2023-02-28T11:45:03;1.85;;;1.75;;
40533;SDS011;26233;51.894;10.192;2023-02-28T11:47:47;2.15;;;1.90;;
40533;SDS011;26233;51.894;10.192;2023-02-28T11:50:28;2.67;;;2.35;;
40533;SDS011;26233;51.894;10.192;2023-02-28T11:53:10;2.50;;;2.30;;
40533;SDS011;26233;51.894;10.192;2023-02-28T11:55:51;3.17;;;2.25;;
40533;SDS011;26233;51.894;10.192;2023-02-28T11:58:26;2.85;;;2.10;;
40533;SDS011;26233;51.894;10.192;2023-02-28T12:01:05;2.10;;;1.90;;
40533;SDS011;26233;51.894;10.192;2023-02-28T12:03:49;2.10;;;1.75;;
40533;SDS011;26233;51.894;10.192;2023-02-28T12:06:30;2.28;;;2.08;;
40533;SDS011;26233;51.894;10.192;2023-02-28T12:09:10;1.90;;;1.70;;
40533;SDS011;26233;51.894;10.192;2023-02-28T12:11:59;2.20;;;2.00;;
40533;SDS011;26233;51.894;10.192;2023-02-28T12:14:50;2.30;;;2.10;;
40533;SDS011;26233;51.894;10.192;2023-02-28T12:17:32;2.17;;;1.98;;
40533;SDS011;26233;51.894;10.192;2023-02-28T12:20:15;2.40;;;2.15;;
40533;SDS011;26233;51.894;10.192;2023-02-28T12:22:54;1.88;;;1.77;;
40533;SDS011;26233;51.894;10.192;2023-02-28T12:25:50;2.38;;;2.20;;
40533;SDS011;26233;51.894;10.192;2023-02-28T12:28:31;2.47;;;2.28;;
40533;SDS011;26233;51.894;10.192;2023-02-28T12:31:04;2.38;;;2.17;;
40533;SDS011;26233;51.894;10.192;2023-02-28T12:33:38;2.10;;;1.98;;
40533;SDS011;26233;51.894;10.192;2023-02-28T12:36:10;2.10;;;2.00;;
40533;SDS011;26233;51.894;10.192;2023-02-28T12:38:44;2.60;;;2.40;;
40533;SDS011;26233;51.894;10.192;2023-02-28T12:41:14;2.38;;;2.17;;
40533;SDS011;26233;51.894;10.192;2023-02-28T12:43:48;2.60;;;2.40;;
40533;SDS011;26233;51.894;10.192;2023-02-28T12:46:23;2.28;;;2.08;;
40533;SDS011;26233;51.894;10.192;2023-02-28T12:48:56;2.53;;;2.33;;
40533;SDS011;26233;51.894;10.192;2023-02-28T12:51:25;2.30;;;2.10;;
40533;SDS011;26233;51.894;10.192;2023-02-28T12:53:56;2.63;;;2.38;;
40533;SDS011;26233;51.894;10.192;2023-02-28T12:56:35;2.70;;;2.40;;
40533;SDS011;26233;51.894;10.192;2023-02-28T12:59:14;2.40;;;2.20;;
40533;SDS011;26233;51.894;10.192;2023-02-28T13:05:27;2.50;;;2.30;;
40533;SDS011;26233;51.894;10.192;2023-02-28T13:08:27;2.60;;;2.33;;
40533;SDS011;26233;51.894;10.192;2023-02-28T13:11:28;2.38;;;2.17;;
40533;SDS011;26233;51.894;10.192;2023-02-28T13:13:59;2.38;;;2.17;;
40533;SDS011;26233;51.894;10.192;2023-02-28T13:16:32;2.63;;;2.42;;
40533;SDS011;26233;51.894;10.192;2023-02-28T13:19:22;3.15;;;2.42;;
40533;SDS011;26233;51.894;10.192;2023-02-28T13:21:52;2.92;;;2.65;;
40533;SDS011;26233;51.894;10.192;2023-02-28T13:24:37;2.70;;;2.50;;
40533;SDS011;26233;51.894;10.192;2023-02-28T13:30:02;3.28;;;2.38;;
40533;SDS011;26233;51.894;10.192;2023-02-28T13:33:27;2.17;;;1.98;;
40533;SDS011;26233;51.894;10.192;2023-02-28T13:36:09;2.67;;;2.42;;
40533;SDS011;26233;51.894;10.192;2023-02-28T13:38:49;3.25;;;2.70;;
40533;SDS011;26233;51.894;10.192;2023-02-28T13:44:13;2.72;;;2.53;;
40533;SDS011;26233;51.894;10.192;2023-02-28T13:49:49;3.03;;;2.40;;
40533;SDS011;26233;51.894;10.192;2023-02-28T13:52:20;2.53;;;2.33;;
40533;SDS011;26233;51.894;10.192;2023-02-28T13:54:56;2.63;;;2.42;;
40533;SDS011;26233;51.894;10.192;2023-02-28T13:57:50;2.60;;;2.40;;
40533;SDS011;26233;51.894;10.192;2023-02-28T14:00:42;2.50;;;2.30;;
40533;SDS011;26233;51.894;10.192;2023-02-28T14:03:36;2.72;;;2.53;;
40533;SDS011;26233;51.894;10.192;2023-02-28T14:06:26;2.85;;;2.65;;
40533;SDS011;26233;51.894;10.192;2023-02-28T14:08:58;3.15;;;2.92;;
40533;SDS011;26233;51.894;10.192;2023-02-28T14:11:33;2.53;;;2.33;;
40533;SDS011;26233;51.894;10.192;2023-02-28T14:14:02;3.25;;;2.55;;
40533;SDS011;26233;51.894;10.192;2023-02-28T14:16:36;2.90;;;2.60;;
40533;SDS011;26233;51.894;10.192;2023-02-28T14:19:10;3.38;;;3.08;;
40533;SDS011;26233;51.894;10.192;2023-02-28T14:21:47;2.80;;;2.60;;
40533;SDS011;26233;51.894;10.192;2023-02-28T14:27:37;2.67;;;2.47;;
40533;SDS011;26233;51.894;10.192;2023-02-28T14:30:32;2.83;;;2.63;;
40533;SDS011;26233;51.894;10.192;2023-02-28T14:33:22;3.33;;;3.03;;
40533;SDS011;26233;51.894;10.192;2023-02-28T14:38:47;2.60;;;2.40;;
40533;SDS011;26233;51.894;10.192;2023-02-28T14:41:20;3.38;;;2.88;;
40533;SDS011;26233;51.894;10.192;2023-02-28T14:43:54;2.70;;;2.50;;
40533;SDS011;26233;51.894;10.192;2023-02-28T14:46:25;2.90;;;2.70;;
40533;SDS011;26233;51.894;10.192;2023-02-28T14:48:59;2.95;;;2.75;;
40533;SDS011;26233;51.894;10.192;2023-02-28T14:51:27;2.88;;;2.67;;
40533;SDS011;26233;51.894;10.192;2023-02-28T14:53:56;2.97;;;2.78;;
40533;SDS011;26233;51.894;10.192;2023-02-28T14:56:26;2.85;;;2.60;;
40533;SDS011;26233;51.894;10.192;2023-02-28T14:58:59;2.50;;;2.30;;
40533;SDS011;26233;51.894;10.192;2023-02-28T15:01:27;2.58;;;2.38;;
40533;SDS011;26233;51.894;10.192;2023-02-28T15:03:59;3.00;;;2.63;;
40533;SDS011;26233;51.894;10.192;2023-02-28T15:06:29;2.95;;;2.75;;
40533;SDS011;26233;51.894;10.192;2023-02-28T15:09:07;2.90;;;2.70;;
40533;SDS011;26233;51.894;10.192;2023-02-28T15:11:36;2.67;;;2.40;;
40533;SDS011;26233;51.894;10.192;2023-02-28T15:14:05;2.50;;;2.30;;
40533;SDS011;26233;51.894;10.192;2023-02-28T15:16:33;2.65;;;2.45;;
40533;SDS011;26233;51.894;10.192;2023-02-28T15:19:04;3.27;;;2.80;;
40533;SDS011;26233;51.894;10.192;2023-02-28T15:21:34;2.77;;;2.57;;
40533;SDS011;26233;51.894;10.192;2023-02-28T15:24:05;2.87;;;2.67;;
40533;SDS011;26233;51.894;10.192;2023-02-28T15:26:39;2.77;;;2.57;;
40533;SDS011;26233;51.894;10.192;2023-02-28T15:29:11;3.08;;;2.75;;
40533;SDS011;26233;51.894;10.192;2023-02-28T15:31:45;2.60;;;2.40;;
40533;SDS011;26233;51.894;10.192;2023-02-28T15:34:18;2.47;;;2.20;;
40533;SDS011;26233;51.894;10.192;2023-02-28T15:36:48;2.70;;;2.50;;